sensor_id;sensor_type;location;lat;lon;timestamp;P1;durP1;ratioP1;P2;durP2;ratioP2
19032;SDS011;9649;51.042;13.804;2024-03-25T00:00:37;3.50;;;1.97;;
19032;SDS011;9649;51.042;13.804;2024-03-25T00:06:15;2.10;;;1.80;;
19032;SDS011;9649;51.042;13.804;2024-03-25T00:11:37;4.70;;;1.90;;
19032;SDS011;9649;51.042;13.804;2024-03-25T00:16:46;2.93;;;1.90;;
19032;SDS011;9649;51.042;13.804;2024-03-25T00:22:12;2.97;;;1.70;;
19032;SDS011;9649;51.042;13.804;2024-03-25T00:27:46;4.97;;;2.30;;
19032;SDS011;9649;51.042;13.804;2024-03-25T00:32:58;5.50;;;2.20;;
19032;SDS011;9649;51.042;13.804;2024-03-25T00:38:12;3.20;;;2.33;;
19032;SDS011;9649;51.042;13.804;2024-03-25T00:43:18;2.27;;;2.07;;
19032;SDS011;9649;51.042;13.804;2024-03-25T00:48:24;3.00;;;1.90;;
19032;SDS011;9649;51.042;13.804;2024-03-25T00:53:28;2.97;;;2.30;;
19032;SDS011;9649;51.042;13.804;2024-03-25T00:58:30;2.67;;;1.87;;
19032;SDS011;9649;51.042;13.804;2024-03-25T01:03:32;3.40;;;2.23;;
19032;SDS011;9649;51.042;13.804;2024-03-25T01:08:36;2.97;;;2.10;;
19032;SDS011;9649;51.042;13.804;2024-03-25T01:13:41;5.17;;;2.40;;
19032;SDS011;9649;51.042;13.804;2024-03-25T01:18:44;5.30;;;2.43;;
19032;SDS011;9649;51.042;13.804;2024-03-25T01:23:47;3.70;;;2.40;;
19032;SDS011;9649;51.042;13.804;2024-03-25T01:28:49;3.70;;;2.80;;
19032;SDS011;9649;51.042;13.804;2024-03-25T01:33:51;3.40;;;2.30;;
19032;SDS011;9649;51.042;13.804;2024-03-25T01:38:54;1.73;;;1.40;;
19032;SDS011;9649;51.042;13.804;2024-03-25T01:43:56;3.40;;;1.63;;
19032;SDS011;9649;51.042;13.804;2024-03-25T01:48:58;1.97;;;1.50;;
19032;SDS011;9649;51.042;13.804;2024-03-25T01:54:03;2.67;;;1.20;;
19032;SDS011;9649;51.042;13.804;2024-03-25T01:59:13;2.90;;;1.40;;
19032;SDS011;9649;51.042;13.804;2024-03-25T02:04:46;1.77;;;1.40;;
19032;SDS011;9649;51.042;13.804;2024-03-25T02:15:34;3.00;;;1.70;;
19032;SDS011;9649;51.042;13.804;2024-03-25T02:20:45;2.50;;;1.87;;
19032;SDS011;9649;51.042;13.804;2024-03-25T02:25:55;2.97;;;2.17;;
19032;SDS011;9649;51.042;13.804;2024-03-25T02:30:58;3.67;;;1.80;;
19032;SDS011;9649;51.042;13.804;2024-03-25T02:36:00;3.00;;;2.50;;
19032;SDS011;9649;51.042;13.804;2024-03-25T02:41:15;3.83;;;3.20;;
19032;SDS011;9649;51.042;13.804;2024-03-25T02:46:26;5.17;;;3.60;;
19032;SDS011;9649;51.042;13.804;2024-03-25T02:51:33;6.33;;;3.10;;
19032;SDS011;9649;51.042;13.804;2024-03-25T02:56:37;4.10;;;2.77;;
19032;SDS011;9649;51.042;13.804;2024-03-25T03:01:45;3.67;;;3.00;;
19032;SDS011;9649;51.042;13.804;2024-03-25T03:06:47;6.73;;;2.67;;
19032;SDS011;9649;51.042;13.804;2024-03-25T03:12:01;4.93;;;3.10;;
19032;SDS011;9649;51.042;13.804;2024-03-25T03:17:03;7.43;;;3.20;;
19032;SDS011;9649;51.042;13.804;2024-03-25T03:22:08;4.80;;;2.93;;
19032;SDS011;9649;51.042;13.804;2024-03-25T03:27:15;5.87;;;3.03;;
19032;SDS011;9649;51.042;13.804;2024-03-25T03:32:17;6.33;;;3.33;;
19032;SDS011;9649;51.042;13.804;2024-03-25T03:37:21;4.90;;;3.10;;
19032;SDS011;9649;51.042;13.804;2024-03-25T03:42:25;8.50;;;2.90;;
19032;SDS011;9649;51.042;13.804;2024-03-25T03:47:37;7.63;;;3.27;;
19032;SDS011;9649;51.042;13.804;2024-03-25T03:52:41;3.30;;;2.70;;
19032;SDS011;9649;51.042;13.804;2024-03-25T03:58:02;5.73;;;2.67;;
19032;SDS011;9649;51.042;13.804;2024-03-25T04:03:16;5.80;;;2.60;;
19032;SDS011;9649;51.042;13.804;2024-03-25T04:08:38;6.13;;;2.77;;
19032;SDS011;9649;51.042;13.804;2024-03-25T04:13:47;3.83;;;2.60;;
19032;SDS011;9649;51.042;13.804;2024-03-25T04:18:52;4.43;;;2.83;;
19032;SDS011;9649;51.042;13.804;2024-03-25T04:24:00;3.87;;;2.70;;
19032;SDS011;9649;51.042;13.804;2024-03-25T04:29:11;6.03;;;2.37;;
19032;SDS011;9649;51.042;13.804;2024-03-25T04:34:16;6.33;;;2.20;;
19032;SDS011;9649;51.042;13.804;2024-03-25T04:39:19;6.07;;;2.23;;
19032;SDS011;9649;51.042;13.804;2024-03-25T04:44:30;4.90;;;2.03;;
19032;SDS011;9649;51.042;13.804;2024-03-25T04:49:39;4.77;;;2.10;;
19032;SDS011;9649;51.042;13.804;2024-03-25T04:54:49;5.53;;;2.17;;
19032;SDS011;9649;51.042;13.804;2024-03-25T05:00:23;2.80;;;1.97;;
19032;SDS011;9649;51.042;13.804;2024-03-25T05:05:33;8.47;;;2.13;;
19032;SDS011;9649;51.042;13.804;2024-03-25T05:10:45;3.33;;;2.00;;
19032;SDS011;9649;51.042;13.804;2024-03-25T05:22:43;6.63;;;2.13;;
19032;SDS011;9649;51.042;13.804;2024-03-25T05:28:48;5.37;;;2.13;;
19032;SDS011;9649;51.042;13.804;2024-03-25T05:34:27;4.30;;;2.37;;
19032;SDS011;9649;51.042;13.804;2024-03-25T05:39:35;3.50;;;2.27;;
19032;SDS011;9649;51.042;13.804;2024-03-25T05:44:36;6.73;;;2.80;;
19032;SDS011;9649;51.042;13.804;2024-03-25T05:49:37;5.23;;;2.77;;
19032;SDS011;9649;51.042;13.804;2024-03-25T05:54:39;5.30;;;2.20;;
19032;SDS011;9649;51.042;13.804;2024-03-25T05:59:40;4.27;;;1.97;;
19032;SDS011;9649;51.042;13.804;2024-03-25T06:04:41;5.00;;;2.50;;
19032;SDS011;9649;51.042;13.804;2024-03-25T06:09:43;5.17;;;1.90;;
19032;SDS011;9649;51.042;13.804;2024-03-25T06:14:44;5.67;;;2.03;;
19032;SDS011;9649;51.042;13.804;2024-03-25T06:19:45;4.13;;;2.07;;
19032;SDS011;9649;51.042;13.804;2024-03-25T06:24:48;5.33;;;2.60;;
19032;SDS011;9649;51.042;13.804;2024-03-25T06:29:49;5.33;;;2.43;;
19032;SDS011;9649;51.042;13.804;2024-03-25T06:34:50;2.83;;;2.50;;
19032;SDS011;9649;51.042;13.804;2024-03-25T06:39:52;7.37;;;2.80;;
19032;SDS011;9649;51.042;13.804;2024-03-25T06:44:53;8.30;;;2.97;;
19032;SDS011;9649;51.042;13.804;2024-03-25T06:49:54;3.93;;;2.10;;
19032;SDS011;9649;51.042;13.804;2024-03-25T06:54:56;3.10;;;1.90;;
19032;SDS011;9649;51.042;13.804;2024-03-25T06:59:57;2.40;;;1.50;;
19032;SDS011;9649;51.042;13.804;2024-03-25T07:04:58;2.70;;;1.40;;
19032;SDS011;9649;51.042;13.804;2024-03-25T07:10:01;3.60;;;1.50;;
19032;SDS011;9649;51.042;13.804;2024-03-25T07:15:02;2.50;;;1.30;;
19032;SDS011;9649;51.042;13.804;2024-03-25T07:20:04;3.57;;;1.40;;
19032;SDS011;9649;51.042;13.804;2024-03-25T07:25:07;4.13;;;1.80;;
19032;SDS011;9649;51.042;13.804;2024-03-25T07:30:08;6.27;;;1.37;;
19032;SDS011;9649;51.042;13.804;2024-03-25T07:35:09;3.40;;;1.67;;
19032;SDS011;9649;51.042;13.804;2024-03-25T07:40:12;5.80;;;1.60;;
19032;SDS011;9649;51.042;13.804;2024-03-25T07:45:13;2.60;;;1.30;;
19032;SDS011;9649;51.042;13.804;2024-03-25T07:50:14;5.03;;;1.53;;
19032;SDS011;9649;51.042;13.804;2024-03-25T07:55:16;4.73;;;1.60;;
19032;SDS011;9649;51.042;13.804;2024-03-25T08:00:18;4.80;;;1.97;;
19032;SDS011;9649;51.042;13.804;2024-03-25T08:05:19;3.33;;;1.63;;
19032;SDS011;9649;51.042;13.804;2024-03-25T08:10:21;3.17;;;1.87;;
19032;SDS011;9649;51.042;13.804;2024-03-25T08:15:22;3.67;;;1.70;;
19032;SDS011;9649;51.042;13.804;2024-03-25T08:20:23;2.90;;;1.60;;
19032;SDS011;9649;51.042;13.804;2024-03-25T08:25:25;4.63;;;1.57;;
19032;SDS011;9649;51.042;13.804;2024-03-25T08:30:26;4.13;;;1.60;;
19032;SDS011;9649;51.042;13.804;2024-03-25T08:35:27;3.40;;;1.67;;
19032;SDS011;9649;51.042;13.804;2024-03-25T08:40:29;5.17;;;1.60;;
19032;SDS011;9649;51.042;13.804;2024-03-25T08:45:30;3.60;;;1.87;;
19032;SDS011;9649;51.042;13.804;2024-03-25T08:50:31;6.10;;;1.93;;
19032;SDS011;9649;51.042;13.804;2024-03-25T08:55:34;3.00;;;1.73;;
19032;SDS011;9649;51.042;13.804;2024-03-25T09:00:35;3.83;;;1.43;;
19032;SDS011;9649;51.042;13.804;2024-03-25T09:05:36;6.53;;;2.07;;
19032;SDS011;9649;51.042;13.804;2024-03-25T09:10:38;5.47;;;1.73;;
19032;SDS011;9649;51.042;13.804;2024-03-25T09:15:58;5.83;;;1.80;;
19032;SDS011;9649;51.042;13.804;2024-03-25T09:20:58;2.73;;;1.70;;
19032;SDS011;9649;51.042;13.804;2024-03-25T09:26:01;5.93;;;2.10;;
19032;SDS011;9649;51.042;13.804;2024-03-25T09:31:02;6.73;;;1.67;;
19032;SDS011;9649;51.042;13.804;2024-03-25T09:36:03;3.10;;;1.83;;
19032;SDS011;9649;51.042;13.804;2024-03-25T09:41:07;3.27;;;1.50;;
19032;SDS011;9649;51.042;13.804;2024-03-25T09:46:09;2.93;;;1.23;;
19032;SDS011;9649;51.042;13.804;2024-03-25T09:51:10;2.87;;;1.30;;
19032;SDS011;9649;51.042;13.804;2024-03-25T09:56:13;2.60;;;1.10;;
19032;SDS011;9649;51.042;13.804;2024-03-25T10:01:14;2.00;;;1.10;;
19032;SDS011;9649;51.042;13.804;2024-03-25T10:06:15;2.90;;;1.20;;
19032;SDS011;9649;51.042;13.804;2024-03-25T10:11:17;3.80;;;1.13;;
19032;SDS011;9649;51.042;13.804;2024-03-25T10:16:18;2.00;;;1.50;;
19032;SDS011;9649;51.042;13.804;2024-03-25T10:21:20;2.80;;;1.40;;
19032;SDS011;9649;51.042;13.804;2024-03-25T10:26:26;5.80;;;1.40;;
19032;SDS011;9649;51.042;13.804;2024-03-25T10:31:28;5.83;;;1.30;;
19032;SDS011;9649;51.042;13.804;2024-03-25T10:36:30;4.47;;;1.37;;
19032;SDS011;9649;51.042;13.804;2024-03-25T10:41:32;4.33;;;1.60;;
19032;SDS011;9649;51.042;13.804;2024-03-25T10:46:35;3.73;;;1.67;;
19032;SDS011;9649;51.042;13.804;2024-03-25T10:51:37;5.50;;;1.30;;
19032;SDS011;9649;51.042;13.804;2024-03-25T10:56:41;2.10;;;1.33;;
19032;SDS011;9649;51.042;13.804;2024-03-25T11:01:42;4.80;;;1.43;;
19032;SDS011;9649;51.042;13.804;2024-03-25T11:06:52;5.70;;;1.30;;
19032;SDS011;9649;51.042;13.804;2024-03-25T11:12:31;4.00;;;1.30;;
19032;SDS011;9649;51.042;13.804;2024-03-25T11:17:36;3.07;;;1.47;;
19032;SDS011;9649;51.042;13.804;2024-03-25T11:23:25;4.30;;;1.20;;
19032;SDS011;9649;51.042;13.804;2024-03-25T11:28:35;2.30;;;1.47;;
19032;SDS011;9649;51.042;13.804;2024-03-25T11:33:41;3.33;;;1.37;;
19032;SDS011;9649;51.042;13.804;2024-03-25T11:38:46;3.33;;;1.37;;
19032;SDS011;9649;51.042;13.804;2024-03-25T11:44:27;3.77;;;1.30;;
19032;SDS011;9649;51.042;13.804;2024-03-25T11:49:42;1.92;;;1.15;;
19032;SDS011;9649;51.042;13.804;2024-03-25T11:54:43;2.63;;;1.40;;
19032;SDS011;9649;51.042;13.804;2024-03-25T12:00:01;2.50;;;1.23;;
19032;SDS011;9649;51.042;13.804;2024-03-25T12:05:10;2.10;;;1.50;;
19032;SDS011;9649;51.042;13.804;2024-03-25T12:10:12;3.50;;;1.90;;
19032;SDS011;9649;51.042;13.804;2024-03-25T12:15:33;1.50;;;1.17;;
19032;SDS011;9649;51.042;13.804;2024-03-25T12:20:44;3.97;;;1.10;;
19032;SDS011;9649;51.042;13.804;2024-03-25T12:25:48;1.60;;;1.07;;
19032;SDS011;9649;51.042;13.804;2024-03-25T12:30:53;4.72;;;1.40;;
19032;SDS011;9649;51.042;13.804;2024-03-25T12:36:13;6.18;;;3.17;;
19032;SDS011;9649;51.042;13.804;2024-03-25T12:41:43;1.55;;;1.00;;
19032;SDS011;9649;51.042;13.804;2024-03-25T12:46:46;4.93;;;1.85;;
19032;SDS011;9649;51.042;13.804;2024-03-25T12:51:50;1.47;;;1.33;;
19032;SDS011;9649;51.042;13.804;2024-03-25T12:56:55;1.60;;;1.20;;
19032;SDS011;9649;51.042;13.804;2024-03-25T13:01:58;2.63;;;1.30;;
19032;SDS011;9649;51.042;13.804;2024-03-25T13:06:59;2.33;;;1.07;;
19032;SDS011;9649;51.042;13.804;2024-03-25T13:12:00;2.43;;;1.43;;
19032;SDS011;9649;51.042;13.804;2024-03-25T13:17:05;3.17;;;1.13;;
19032;SDS011;9649;51.042;13.804;2024-03-25T13:22:06;1.73;;;1.00;;
19032;SDS011;9649;51.042;13.804;2024-03-25T13:27:08;5.63;;;1.75;;
19032;SDS011;9649;51.042;13.804;2024-03-25T13:32:10;4.05;;;1.23;;
19032;SDS011;9649;51.042;13.804;2024-03-25T13:37:11;2.05;;;1.25;;
19032;SDS011;9649;51.042;13.804;2024-03-25T13:42:13;1.95;;;1.05;;
19032;SDS011;9649;51.042;13.804;2024-03-25T13:47:15;1.98;;;1.20;;
19032;SDS011;9649;51.042;13.804;2024-03-25T13:52:16;4.10;;;1.23;;
19032;SDS011;9649;51.042;13.804;2024-03-25T13:57:17;2.88;;;0.98;;
19032;SDS011;9649;51.042;13.804;2024-03-25T14:02:20;2.17;;;1.00;;
19032;SDS011;9649;51.042;13.804;2024-03-25T14:07:21;2.72;;;1.08;;
19032;SDS011;9649;51.042;13.804;2024-03-25T14:12:22;2.88;;;1.10;;
19032;SDS011;9649;51.042;13.804;2024-03-25T14:17:24;4.57;;;1.20;;
19032;SDS011;9649;51.042;13.804;2024-03-25T14:22:25;4.65;;;1.20;;
19032;SDS011;9649;51.042;13.804;2024-03-25T14:27:26;6.20;;;1.40;;
19032;SDS011;9649;51.042;13.804;2024-03-25T14:32:28;3.60;;;1.52;;
19032;SDS011;9649;51.042;13.804;2024-03-25T14:37:29;3.20;;;1.08;;
19032;SDS011;9649;51.042;13.804;2024-03-25T14:42:30;1.73;;;1.17;;
19032;SDS011;9649;51.042;13.804;2024-03-25T14:47:33;2.95;;;1.50;;
19032;SDS011;9649;51.042;13.804;2024-03-25T14:52:34;2.67;;;1.20;;
19032;SDS011;9649;51.042;13.804;2024-03-25T14:57:35;2.30;;;1.35;;
19032;SDS011;9649;51.042;13.804;2024-03-25T15:02:37;4.03;;;1.10;;
19032;SDS011;9649;51.042;13.804;2024-03-25T15:07:39;2.30;;;1.20;;
19032;SDS011;9649;51.042;13.804;2024-03-25T15:12:40;2.95;;;1.27;;
19032;SDS011;9649;51.042;13.804;2024-03-25T15:17:43;4.53;;;1.42;;
19032;SDS011;9649;51.042;13.804;2024-03-25T15:22:44;3.03;;;1.65;;
19032;SDS011;9649;51.042;13.804;2024-03-25T15:27:45;3.85;;;1.52;;
19032;SDS011;9649;51.042;13.804;2024-03-25T15:32:48;2.65;;;1.35;;
19032;SDS011;9649;51.042;13.804;2024-03-25T15:37:49;2.08;;;1.20;;
19032;SDS011;9649;51.042;13.804;2024-03-25T15:42:50;3.80;;;1.52;;
19032;SDS011;9649;51.042;13.804;2024-03-25T15:47:53;4.32;;;1.48;;
19032;SDS011;9649;51.042;13.804;2024-03-25T15:52:54;3.08;;;1.20;;
19032;SDS011;9649;51.042;13.804;2024-03-25T15:58:00;2.72;;;1.17;;
19032;SDS011;9649;51.042;13.804;2024-03-25T16:03:04;3.08;;;1.40;;
19032;SDS011;9649;51.042;13.804;2024-03-25T16:08:06;4.13;;;1.30;;
19032;SDS011;9649;51.042;13.804;2024-03-25T16:13:07;1.98;;;1.35;;
19032;SDS011;9649;51.042;13.804;2024-03-25T16:18:12;2.28;;;1.33;;
19032;SDS011;9649;51.042;13.804;2024-03-25T16:23:15;2.70;;;1.45;;
19032;SDS011;9649;51.042;13.804;2024-03-25T16:28:16;2.22;;;1.13;;
19032;SDS011;9649;51.042;13.804;2024-03-25T16:33:19;2.85;;;1.45;;
19032;SDS011;9649;51.042;13.804;2024-03-25T16:38:20;3.77;;;1.60;;
19032;SDS011;9649;51.042;13.804;2024-03-25T16:43:24;5.55;;;2.85;;
19032;SDS011;9649;51.042;13.804;2024-03-25T16:48:30;11.57;;;4.33;;
19032;SDS011;9649;51.042;13.804;2024-03-25T16:53:31;6.37;;;2.10;;
19032;SDS011;9649;51.042;13.804;2024-03-25T16:58:35;10.33;;;4.80;;
19032;SDS011;9649;51.042;13.804;2024-03-25T17:03:43;7.90;;;4.03;;
19032;SDS011;9649;51.042;13.804;2024-03-25T17:08:44;8.90;;;4.27;;
19032;SDS011;9649;51.042;13.804;2024-03-25T17:13:48;5.70;;;2.80;;
19032;SDS011;9649;51.042;13.804;2024-03-25T17:18:54;7.47;;;4.13;;
19032;SDS011;9649;51.042;13.804;2024-03-25T17:23:55;6.50;;;2.60;;
19032;SDS011;9649;51.042;13.804;2024-03-25T17:28:57;6.33;;;2.60;;
19032;SDS011;9649;51.042;13.804;2024-03-25T17:33:59;4.20;;;2.30;;
19032;SDS011;9649;51.042;13.804;2024-03-25T17:39:13;5.17;;;2.40;;
19032;SDS011;9649;51.042;13.804;2024-03-25T17:44:14;5.27;;;2.67;;
19032;SDS011;9649;51.042;13.804;2024-03-25T17:49:19;11.40;;;4.10;;
19032;SDS011;9649;51.042;13.804;2024-03-25T17:54:21;26.37;;;13.07;;
19032;SDS011;9649;51.042;13.804;2024-03-25T17:59:24;25.40;;;13.70;;
19032;SDS011;9649;51.042;13.804;2024-03-25T18:04:29;23.13;;;12.73;;
19032;SDS011;9649;51.042;13.804;2024-03-25T18:09:32;14.47;;;7.77;;
19032;SDS011;9649;51.042;13.804;2024-03-25T18:14:35;12.00;;;6.43;;
19032;SDS011;9649;51.042;13.804;2024-03-25T18:19:47;10.40;;;4.97;;
19032;SDS011;9649;51.042;13.804;2024-03-25T18:24:48;7.57;;;4.63;;
19032;SDS011;9649;51.042;13.804;2024-03-25T18:29:49;11.57;;;3.80;;
19032;SDS011;9649;51.042;13.804;2024-03-25T18:40:10;8.40;;;4.30;;
19032;SDS011;9649;51.042;13.804;2024-03-25T18:45:46;16.37;;;5.60;;
19032;SDS011;9649;51.042;13.804;2024-03-25T18:50:55;10.97;;;4.83;;
19032;SDS011;9649;51.042;13.804;2024-03-25T18:56:01;10.40;;;4.10;;
19032;SDS011;9649;51.042;13.804;2024-03-25T19:07:08;9.23;;;4.60;;
19032;SDS011;9649;51.042;13.804;2024-03-25T19:12:42;11.57;;;5.30;;
19032;SDS011;9649;51.042;13.804;2024-03-25T19:17:50;12.73;;;6.00;;
19032;SDS011;9649;51.042;13.804;2024-03-25T19:22:53;12.43;;;5.93;;
19032;SDS011;9649;51.042;13.804;2024-03-25T19:27:57;10.93;;;6.07;;
19032;SDS011;9649;51.042;13.804;2024-03-25T19:33:07;8.07;;;4.67;;
19032;SDS011;9649;51.042;13.804;2024-03-25T19:38:15;11.87;;;5.50;;
19032;SDS011;9649;51.042;13.804;2024-03-25T19:43:22;14.50;;;7.20;;
19032;SDS011;9649;51.042;13.804;2024-03-25T19:48:28;11.50;;;6.33;;
19032;SDS011;9649;51.042;13.804;2024-03-25T19:54:01;11.07;;;6.17;;
19032;SDS011;9649;51.042;13.804;2024-03-25T19:59:12;13.00;;;6.03;;
19032;SDS011;9649;51.042;13.804;2024-03-25T20:04:13;11.73;;;5.73;;
19032;SDS011;9649;51.042;13.804;2024-03-25T20:09:24;9.80;;;5.17;;
19032;SDS011;9649;51.042;13.804;2024-03-25T20:15:33;9.90;;;5.37;;
19032;SDS011;9649;51.042;13.804;2024-03-25T20:22:07;11.73;;;5.73;;
19032;SDS011;9649;51.042;13.804;2024-03-25T20:52:18;11.57;;;5.40;;
19032;SDS011;9649;51.042;13.804;2024-03-25T20:57:25;10.90;;;5.33;;
19032;SDS011;9649;51.042;13.804;2024-03-25T21:03:25;10.00;;;5.40;;
19032;SDS011;9649;51.042;13.804;2024-03-25T21:09:24;9.80;;;5.27;;
19032;SDS011;9649;51.042;13.804;2024-03-25T21:20:37;11.13;;;6.73;;
19032;SDS011;9649;51.042;13.804;2024-03-25T21:31:39;8.43;;;5.10;;
19032;SDS011;9649;51.042;13.804;2024-03-25T22:19:12;13.27;;;4.70;;
19032;SDS011;9649;51.042;13.804;2024-03-25T22:31:09;11.37;;;5.57;;
